Shengxian, China
Current Conditions -  °F | °C
As of 9:00 PM on Tuesday 21 Oct 2014 (Local Time) from ZSNB Reporting Station
Broken Clouds Broken Clouds  
Wind Chill: 70°   Ceiling: 2600
Heat Index: 70°   Visibility: 5mi
Dew Point: 64°   Wind: 11mph
Humidity: 83%   Direction: 320°NW
Pressure: 30.03"   Gusts: NA
Location:  29.6°N, 120.82°E
Report Text: ZSNB 211300Z 32005MPS 8000 BKN026 21/18 Q1017 NOSIG
Loading
Personal Weather Stations






























Interactive Weather Map
Tropical Storm Tracking
New forecast layout! Learn more

10-Day Weather Forecast

Advertisements
Track Severe Weather on mobile